KPHF

Newport News / Williamsburg International Airport

Newport News, Virginia, USA
METAR KPHF 170105Z 31008KT 10SM SCT014 OVC070 07/05 A2991 RMK AO2 T00720050
Observed Flight Rules
Dec-17 @ 01:05 UTC (36 minutes ago) Visual Flight Rules
Wind Visibility Clouds
310° at 8 knots 10 miles
  • Scattered at 1,400' AGL
  • Overcast at 7,000' AGL
Temperatures Readings
Current 7°C / 45°F
Dewpoint 5°C / 41°F
Humidity 87%
Altimeter 29.91" Hg
Pressure 1013 hPa
Elevation 12
METAR KPHF 170105Z 31008KT 10SM SCT014 OVC070 07/05 A2991 RMK AO2 T00720050
Observed Flight Rules
Dec-17 @ 01:05 UTC
(36 minutes ago)
VFR
Wind Visibility
310° at 8 knots 10 miles
Clouds
  • Scattered at 1,400' AGL
  • Overcast at 7,000' AGL
Temperature Dewpoint
7°C / 45°F 5°C / 41°F
Humidity Altimeter Pressure
87% 29.91" Hg 1013 hPa